Airfield :
LOGIN :

Register | Disclaimer

   EN    FR    IT 

 










Legend :    VFR   Marginal VFR   IFR   Intensive IFR   Very Intensive IFR
Visi :
Ceiling :
>= 8 km
>= 3000ft
5 to 8 km
1000 to 3000 ft
1500m to 5 km
500 to 1000 ft
800 to 1500m
200 to 500 ft
< 800m
< 200 ft
Symbols :   Thunderstorms  Fog  Heavy snow  Heavy precipitations  Wind > 20 kt
SIGMETs :     Misc.  Thunderstorms  Icing  Turbulence  Mountain Waves  Volcanic Ashes






- Airport Elevation : 2595 ft
- IATA code : SLM


LESA - Salamanca Matacan

CURRENT METAR :
  • 201100Z 27009KT 230V300 9999 RA SCT007 SCT014 BKN021 15/15 Q1020

EXPIRED METARs :
  • 201030Z 28005KT 250V320 2500 RA BKN015 BKN023 16/14 Q1019
  • 201000Z 27008KT 240V300 8000 FEW027 BKN044 17/14 Q1019
  • 200930Z 26011KT 9999 FEW018 BKN038 17/14 Q1019
  • 200900Z 27006KT 230V320 9999 FEW013 SCT027 BKN044 15/14 Q1019
  • 200839Z 26007KT 220V290 9999 -RA SCT010 BKN014 BKN019 15/14 Q1019
  • 200830Z 29005KT 240V340 2000 1000N -RA VCFG SCT007 BKN014 15/14 Q1019

TAF TAF LESA
Valid from the 20 at 09:00 until the 21 at 09:00 UTC


200800Z 2009/2109 25011KT 9999 SCT025 BKN045 TX23/2016Z TN05/2106Z
TEMPO 2009/2018 3000 DZRA BKN014
BECMG 2020/2022 27006KT
BECMG 2023/2101 VRB05KT



MET'MAP, your aeronautical weather chart ! - Copyright ORBIFLY December 2007 - Disclaimer

ORBIFLY MET'MAP TEAM :

Programming & Development : Alexandra Zaïnal
Concept & original design : Baudouin d'Aumeries
Assistance for programming : Marc-Olivier Méhu
Technical & hardware support : Manuel Goepfert

Contact : metmap@orbifly.com




SOURCES & CREDITS :

   NOAA